sensor_id;sensor_type;location;lat;lon;timestamp;temperature;humidity
19906;DHT22;10115;50.906;4.438;2023-04-03T00:00:54;2.50;99.90
19906;DHT22;10115;50.906;4.438;2023-04-03T00:03:19;2.40;99.90
19906;DHT22;10115;50.906;4.438;2023-04-03T00:05:46;2.40;99.90
19906;DHT22;10115;50.906;4.438;2023-04-03T00:08:12;2.40;99.90
19906;DHT22;10115;50.906;4.438;2023-04-03T00:10:37;2.30;99.90
19906;DHT22;10115;50.906;4.438;2023-04-03T00:13:05;2.30;99.90
19906;DHT22;10115;50.906;4.438;2023-04-03T00:15:32;2.30;99.90
19906;DHT22;10115;50.906;4.438;2023-04-03T00:17:59;2.30;99.90
19906;DHT22;10115;50.906;4.438;2023-04-03T00:20:25;2.30;99.90
19906;DHT22;10115;50.906;4.438;2023-04-03T00:22:53;2.30;99.90
19906;DHT22;10115;50.906;4.438;2023-04-03T00:25:18;2.20;99.90
19906;DHT22;10115;50.906;4.438;2023-04-03T00:27:44;2.20;99.90
19906;DHT22;10115;50.906;4.438;2023-04-03T00:30:13;2.10;99.90
19906;DHT22;10115;50.906;4.438;2023-04-03T00:32:39;2.10;99.90
19906;DHT22;10115;50.906;4.438;2023-04-03T00:35:05;2.10;99.90
19906;DHT22;10115;50.906;4.438;2023-04-03T00:37:31;2.10;99.90
19906;DHT22;10115;50.906;4.438;2023-04-03T00:39:56;2.10;99.90
19906;DHT22;10115;50.906;4.438;2023-04-03T00:42:22;2.20;99.90
19906;DHT22;10115;50.906;4.438;2023-04-03T00:47:16;2.20;99.90
19906;DHT22;10115;50.906;4.438;2023-04-03T00:49:42;2.10;99.90
19906;DHT22;10115;50.906;4.438;2023-04-03T00:52:14;2.20;99.90
19906;DHT22;10115;50.906;4.438;2023-04-03T00:54:42;2.20;99.90
19906;DHT22;10115;50.906;4.438;2023-04-03T00:57:09;2.20;99.90
19906;DHT22;10115;50.906;4.438;2023-04-03T00:59:44;2.20;99.90
19906;DHT22;10115;50.906;4.438;2023-04-03T01:02:12;2.20;99.90
19906;DHT22;10115;50.906;4.438;2023-04-03T01:04:40;2.20;99.90
19906;DHT22;10115;50.906;4.438;2023-04-03T01:07:19;2.20;99.90
19906;DHT22;10115;50.906;4.438;2023-04-03T01:09:48;2.20;99.90
19906;DHT22;10115;50.906;4.438;2023-04-03T01:12:18;2.30;99.90
19906;DHT22;10115;50.906;4.438;2023-04-03T01:14:45;2.20;99.90
19906;DHT22;10115;50.906;4.438;2023-04-03T01:17:42;2.00;99.90
19906;DHT22;10115;50.906;4.438;2023-04-03T01:22:53;2.10;99.90
19906;DHT22;10115;50.906;4.438;2023-04-03T01:25:21;2.10;99.90
19906;DHT22;10115;50.906;4.438;2023-04-03T01:27:47;2.10;99.90
19906;DHT22;10115;50.906;4.438;2023-04-03T01:30:15;2.10;99.90
19906;DHT22;10115;50.906;4.438;2023-04-03T01:32:42;2.10;99.90
19906;DHT22;10115;50.906;4.438;2023-04-03T01:35:09;2.10;99.90
19906;DHT22;10115;50.906;4.438;2023-04-03T01:37:35;2.10;99.90
19906;DHT22;10115;50.906;4.438;2023-04-03T01:40:02;2.10;99.90
19906;DHT22;10115;50.906;4.438;2023-04-03T01:42:28;2.10;99.90
19906;DHT22;10115;50.906;4.438;2023-04-03T01:44:54;2.10;99.90
19906;DHT22;10115;50.906;4.438;2023-04-03T01:47:20;2.20;99.90
19906;DHT22;10115;50.906;4.438;2023-04-03T01:49:46;2.00;99.90
19906;DHT22;10115;50.906;4.438;2023-04-03T01:52:12;2.00;99.90
19906;DHT22;10115;50.906;4.438;2023-04-03T01:54:37;2.00;99.90
19906;DHT22;10115;50.906;4.438;2023-04-03T01:57:03;2.00;99.90
19906;DHT22;10115;50.906;4.438;2023-04-03T01:59:29;1.90;99.90
19906;DHT22;10115;50.906;4.438;2023-04-03T02:01:56;1.90;99.90
19906;DHT22;10115;50.906;4.438;2023-04-03T02:04:21;1.80;99.90
19906;DHT22;10115;50.906;4.438;2023-04-03T02:06:47;1.80;99.90
19906;DHT22;10115;50.906;4.438;2023-04-03T02:09:13;1.90;99.90
19906;DHT22;10115;50.906;4.438;2023-04-03T02:11:38;1.80;99.90
19906;DHT22;10115;50.906;4.438;2023-04-03T02:14:04;1.80;99.90
19906;DHT22;10115;50.906;4.438;2023-04-03T02:16:30;1.90;99.90
19906;DHT22;10115;50.906;4.438;2023-04-03T02:18:56;1.80;99.90
19906;DHT22;10115;50.906;4.438;2023-04-03T02:21:22;1.80;99.90
19906;DHT22;10115;50.906;4.438;2023-04-03T02:23:48;1.70;99.90
19906;DHT22;10115;50.906;4.438;2023-04-03T02:26:15;1.70;99.90
19906;DHT22;10115;50.906;4.438;2023-04-03T02:28:42;1.70;99.90
19906;DHT22;10115;50.906;4.438;2023-04-03T02:31:08;1.70;99.90
19906;DHT22;10115;50.906;4.438;2023-04-03T02:33:35;1.70;99.90
19906;DHT22;10115;50.906;4.438;2023-04-03T02:36:05;1.60;99.90
19906;DHT22;10115;50.906;4.438;2023-04-03T02:38:32;1.70;99.90
19906;DHT22;10115;50.906;4.438;2023-04-03T02:41:11;1.60;99.90
19906;DHT22;10115;50.906;4.438;2023-04-03T02:43:38;1.70;99.90
19906;DHT22;10115;50.906;4.438;2023-04-03T02:46:04;1.70;99.90
19906;DHT22;10115;50.906;4.438;2023-04-03T02:48:30;1.70;99.90
19906;DHT22;10115;50.906;4.438;2023-04-03T02:50:56;1.60;99.90
19906;DHT22;10115;50.906;4.438;2023-04-03T02:53:22;1.50;99.90
19906;DHT22;10115;50.906;4.438;2023-04-03T02:55:48;1.50;99.90
19906;DHT22;10115;50.906;4.438;2023-04-03T02:58:14;1.50;99.90
19906;DHT22;10115;50.906;4.438;2023-04-03T03:00:40;1.50;99.90
19906;DHT22;10115;50.906;4.438;2023-04-03T03:03:06;1.40;99.90
19906;DHT22;10115;50.906;4.438;2023-04-03T03:05:32;1.40;99.90
19906;DHT22;10115;50.906;4.438;2023-04-03T03:07:57;1.40;99.90
19906;DHT22;10115;50.906;4.438;2023-04-03T03:10:23;1.40;99.90
19906;DHT22;10115;50.906;4.438;2023-04-03T03:12:49;1.40;99.90
19906;DHT22;10115;50.906;4.438;2023-04-03T03:15:15;1.30;99.90
19906;DHT22;10115;50.906;4.438;2023-04-03T03:17:42;1.30;99.90
19906;DHT22;10115;50.906;4.438;2023-04-03T03:20:08;1.30;99.90
19906;DHT22;10115;50.906;4.438;2023-04-03T03:22:35;1.20;99.90
19906;DHT22;10115;50.906;4.438;2023-04-03T03:25:01;1.20;99.90
19906;DHT22;10115;50.906;4.438;2023-04-03T03:27:27;1.10;99.90
19906;DHT22;10115;50.906;4.438;2023-04-03T03:29:53;1.00;99.90
19906;DHT22;10115;50.906;4.438;2023-04-03T03:32:19;0.90;99.90
19906;DHT22;10115;50.906;4.438;2023-04-03T03:34:44;0.90;99.90
19906;DHT22;10115;50.906;4.438;2023-04-03T03:37:10;0.80;99.90
19906;DHT22;10115;50.906;4.438;2023-04-03T03:39:36;0.80;99.90
19906;DHT22;10115;50.906;4.438;2023-04-03T03:42:01;0.90;99.90
19906;DHT22;10115;50.906;4.438;2023-04-03T03:44:27;0.90;99.90
19906;DHT22;10115;50.906;4.438;2023-04-03T03:46:54;1.00;99.90
19906;DHT22;10115;50.906;4.438;2023-04-03T03:49:20;0.90;99.90
19906;DHT22;10115;50.906;4.438;2023-04-03T03:51:46;0.90;99.90
19906;DHT22;10115;50.906;4.438;2023-04-03T03:54:12;1.00;99.90
19906;DHT22;10115;50.906;4.438;2023-04-03T03:56:39;1.00;99.90
19906;DHT22;10115;50.906;4.438;2023-04-03T03:59:05;1.00;99.90
19906;DHT22;10115;50.906;4.438;2023-04-03T04:01:31;0.90;99.90
19906;DHT22;10115;50.906;4.438;2023-04-03T04:03:57;0.90;99.90
19906;DHT22;10115;50.906;4.438;2023-04-03T04:06:22;1.00;99.90
19906;DHT22;10115;50.906;4.438;2023-04-03T04:08:48;0.90;99.90
19906;DHT22;10115;50.906;4.438;2023-04-03T04:11:14;0.90;99.90
19906;DHT22;10115;50.906;4.438;2023-04-03T04:13:40;0.90;99.90
19906;DHT22;10115;50.906;4.438;2023-04-03T04:16:07;0.90;99.90
19906;DHT22;10115;50.906;4.438;2023-04-03T04:18:32;0.80;99.90
19906;DHT22;10115;50.906;4.438;2023-04-03T04:20:58;0.80;99.90
19906;DHT22;10115;50.906;4.438;2023-04-03T04:23:24;0.80;99.90
19906;DHT22;10115;50.906;4.438;2023-04-03T04:25:50;0.80;99.90
19906;DHT22;10115;50.906;4.438;2023-04-03T04:28:16;0.80;99.90
19906;DHT22;10115;50.906;4.438;2023-04-03T04:30:42;0.80;99.90
19906;DHT22;10115;50.906;4.438;2023-04-03T04:33:08;0.90;99.90
19906;DHT22;10115;50.906;4.438;2023-04-03T04:35:34;0.80;99.90
19906;DHT22;10115;50.906;4.438;2023-04-03T04:38:00;0.80;99.90
19906;DHT22;10115;50.906;4.438;2023-04-03T04:40:26;0.80;99.90
19906;DHT22;10115;50.906;4.438;2023-04-03T04:42:52;0.80;99.90
19906;DHT22;10115;50.906;4.438;2023-04-03T04:45:17;0.90;99.90
19906;DHT22;10115;50.906;4.438;2023-04-03T04:47:43;0.90;99.90
19906;DHT22;10115;50.906;4.438;2023-04-03T04:50:09;0.90;99.90
19906;DHT22;10115;50.906;4.438;2023-04-03T04:52:35;0.90;99.90
19906;DHT22;10115;50.906;4.438;2023-04-03T04:55:01;0.90;99.90
19906;DHT22;10115;50.906;4.438;2023-04-03T04:57:27;0.90;99.90
19906;DHT22;10115;50.906;4.438;2023-04-03T04:59:52;0.90;99.90
19906;DHT22;10115;50.906;4.438;2023-04-03T05:02:18;1.00;99.90
19906;DHT22;10115;50.906;4.438;2023-04-03T05:04:44;1.00;99.90
19906;DHT22;10115;50.906;4.438;2023-04-03T05:07:10;0.90;99.90
19906;DHT22;10115;50.906;4.438;2023-04-03T05:09:35;0.90;99.90
19906;DHT22;10115;50.906;4.438;2023-04-03T05:12:01;0.80;99.90
19906;DHT22;10115;50.906;4.438;2023-04-03T05:14:28;0.90;99.90
19906;DHT22;10115;50.906;4.438;2023-04-03T05:16:54;0.90;99.90
19906;DHT22;10115;50.906;4.438;2023-04-03T05:19:20;0.90;99.90
19906;DHT22;10115;50.906;4.438;2023-04-03T05:21:46;0.80;99.90
19906;DHT22;10115;50.906;4.438;2023-04-03T05:24:12;0.80;99.90
19906;DHT22;10115;50.906;4.438;2023-04-03T05:26:38;0.90;99.90
19906;DHT22;10115;50.906;4.438;2023-04-03T05:29:04;0.80;99.90
19906;DHT22;10115;50.906;4.438;2023-04-03T05:31:30;0.90;99.90
19906;DHT22;10115;50.906;4.438;2023-04-03T05:33:55;0.90;99.90
19906;DHT22;10115;50.906;4.438;2023-04-03T05:36:21;0.90;99.90
19906;DHT22;10115;50.906;4.438;2023-04-03T05:38:48;1.00;99.90
19906;DHT22;10115;50.906;4.438;2023-04-03T05:41:14;1.10;99.90
19906;DHT22;10115;50.906;4.438;2023-04-03T05:43:40;1.10;99.90
19906;DHT22;10115;50.906;4.438;2023-04-03T05:46:18;1.10;99.90
19906;DHT22;10115;50.906;4.438;2023-04-03T05:48:44;1.20;99.90
19906;DHT22;10115;50.906;4.438;2023-04-03T05:51:24;1.20;99.90
19906;DHT22;10115;50.906;4.438;2023-04-03T05:53:56;1.20;99.90
19906;DHT22;10115;50.906;4.438;2023-04-03T05:56:24;1.30;99.90
19906;DHT22;10115;50.906;4.438;2023-04-03T05:58:50;1.20;99.90
19906;DHT22;10115;50.906;4.438;2023-04-03T06:01:16;1.20;99.90
19906;DHT22;10115;50.906;4.438;2023-04-03T06:03:42;1.20;99.90
19906;DHT22;10115;50.906;4.438;2023-04-03T06:06:08;1.30;99.90
19906;DHT22;10115;50.906;4.438;2023-04-03T06:08:37;1.30;99.90
19906;DHT22;10115;50.906;4.438;2023-04-03T06:11:03;1.40;99.90
19906;DHT22;10115;50.906;4.438;2023-04-03T06:13:29;1.50;99.90
19906;DHT22;10115;50.906;4.438;2023-04-03T06:15:55;1.60;99.90
19906;DHT22;10115;50.906;4.438;2023-04-03T06:18:21;1.60;99.90
19906;DHT22;10115;50.906;4.438;2023-04-03T06:20:47;1.70;99.90
19906;DHT22;10115;50.906;4.438;2023-04-03T06:23:12;1.70;99.90
19906;DHT22;10115;50.906;4.438;2023-04-03T06:25:38;1.80;99.90
19906;DHT22;10115;50.906;4.438;2023-04-03T06:28:04;1.80;99.90
19906;DHT22;10115;50.906;4.438;2023-04-03T06:30:29;1.90;99.90
19906;DHT22;10115;50.906;4.438;2023-04-03T06:32:55;2.00;99.90
19906;DHT22;10115;50.906;4.438;2023-04-03T06:35:21;2.10;99.90
19906;DHT22;10115;50.906;4.438;2023-04-03T06:37:49;2.10;99.90
19906;DHT22;10115;50.906;4.438;2023-04-03T06:40:23;2.10;99.90
19906;DHT22;10115;50.906;4.438;2023-04-03T06:42:49;2.30;99.90
19906;DHT22;10115;50.906;4.438;2023-04-03T06:45:15;2.20;99.90
19906;DHT22;10115;50.906;4.438;2023-04-03T06:47:40;2.30;99.90
19906;DHT22;10115;50.906;4.438;2023-04-03T06:50:06;2.30;99.90
19906;DHT22;10115;50.906;4.438;2023-04-03T06:52:34;2.40;99.90
19906;DHT22;10115;50.906;4.438;2023-04-03T06:55:00;2.40;99.90
19906;DHT22;10115;50.906;4.438;2023-04-03T06:57:26;2.50;99.90
19906;DHT22;10115;50.906;4.438;2023-04-03T06:59:51;2.60;99.90
19906;DHT22;10115;50.906;4.438;2023-04-03T07:02:17;2.60;99.90
19906;DHT22;10115;50.906;4.438;2023-04-03T07:04:43;2.80;99.90
19906;DHT22;10115;50.906;4.438;2023-04-03T07:07:08;2.90;99.90
19906;DHT22;10115;50.906;4.438;2023-04-03T07:09:34;3.10;99.90
19906;DHT22;10115;50.906;4.438;2023-04-03T07:12:00;3.20;99.90
19906;DHT22;10115;50.906;4.438;2023-04-03T07:14:26;3.20;99.90
19906;DHT22;10115;50.906;4.438;2023-04-03T07:16:51;3.30;99.90
19906;DHT22;10115;50.906;4.438;2023-04-03T07:19:17;3.40;99.90
19906;DHT22;10115;50.906;4.438;2023-04-03T07:21:44;3.60;99.90
19906;DHT22;10115;50.906;4.438;2023-04-03T07:24:10;3.50;99.90
19906;DHT22;10115;50.906;4.438;2023-04-03T07:26:36;3.50;99.90
19906;DHT22;10115;50.906;4.438;2023-04-03T07:29:01;3.50;99.90
19906;DHT22;10115;50.906;4.438;2023-04-03T07:31:27;3.60;99.90
19906;DHT22;10115;50.906;4.438;2023-04-03T07:33:53;3.80;99.90
19906;DHT22;10115;50.906;4.438;2023-04-03T07:36:21;3.90;99.90
19906;DHT22;10115;50.906;4.438;2023-04-03T07:38:47;4.00;99.90
19906;DHT22;10115;50.906;4.438;2023-04-03T07:41:17;4.00;99.90
19906;DHT22;10115;50.906;4.438;2023-04-03T07:43:44;4.20;99.90
19906;DHT22;10115;50.906;4.438;2023-04-03T07:46:11;4.50;99.90
19906;DHT22;10115;50.906;4.438;2023-04-03T07:48:36;4.60;99.90
19906;DHT22;10115;50.906;4.438;2023-04-03T07:51:04;4.60;99.90
19906;DHT22;10115;50.906;4.438;2023-04-03T07:53:30;4.70;99.90
19906;DHT22;10115;50.906;4.438;2023-04-03T07:55:57;4.80;99.90
19906;DHT22;10115;50.906;4.438;2023-04-03T07:58:23;4.80;99.90
19906;DHT22;10115;50.906;4.438;2023-04-03T08:00:49;4.80;99.90
19906;DHT22;10115;50.906;4.438;2023-04-03T08:03:15;5.00;99.90
19906;DHT22;10115;50.906;4.438;2023-04-03T08:05:45;5.00;99.90
19906;DHT22;10115;50.906;4.438;2023-04-03T08:08:13;5.20;99.90
19906;DHT22;10115;50.906;4.438;2023-04-03T08:10:40;5.30;99.90
19906;DHT22;10115;50.906;4.438;2023-04-03T08:13:06;5.40;99.90
19906;DHT22;10115;50.906;4.438;2023-04-03T08:15:32;5.70;99.90
19906;DHT22;10115;50.906;4.438;2023-04-03T08:17:59;5.70;99.90
19906;DHT22;10115;50.906;4.438;2023-04-03T08:20:26;5.50;99.90
19906;DHT22;10115;50.906;4.438;2023-04-03T08:22:52;5.50;99.90
19906;DHT22;10115;50.906;4.438;2023-04-03T08:25:18;5.40;99.90
19906;DHT22;10115;50.906;4.438;2023-04-03T08:27:44;5.50;99.90
19906;DHT22;10115;50.906;4.438;2023-04-03T08:30:10;5.60;99.90
19906;DHT22;10115;50.906;4.438;2023-04-03T08:32:36;5.60;99.90
19906;DHT22;10115;50.906;4.438;2023-04-03T08:35:03;5.70;99.90
19906;DHT22;10115;50.906;4.438;2023-04-03T08:37:28;5.70;99.90
19906;DHT22;10115;50.906;4.438;2023-04-03T08:39:54;5.80;99.90
19906;DHT22;10115;50.906;4.438;2023-04-03T08:42:41;5.90;99.90
19906;DHT22;10115;50.906;4.438;2023-04-03T08:45:22;5.90;99.90
19906;DHT22;10115;50.906;4.438;2023-04-03T08:48:03;5.90;99.90
19906;DHT22;10115;50.906;4.438;2023-04-03T08:50:36;6.00;99.90
19906;DHT22;10115;50.906;4.438;2023-04-03T08:53:03;6.20;99.90
19906;DHT22;10115;50.906;4.438;2023-04-03T08:55:36;6.20;99.90
19906;DHT22;10115;50.906;4.438;2023-04-03T08:58:06;6.20;99.90
19906;DHT22;10115;50.906;4.438;2023-04-03T09:00:46;6.20;99.90
19906;DHT22;10115;50.906;4.438;2023-04-03T09:03:15;6.20;99.90
19906;DHT22;10115;50.906;4.438;2023-04-03T09:05:57;6.30;99.90
19906;DHT22;10115;50.906;4.438;2023-04-03T09:08:27;6.40;99.90
19906;DHT22;10115;50.906;4.438;2023-04-03T09:11:06;6.50;99.90
19906;DHT22;10115;50.906;4.438;2023-04-03T09:13:59;6.60;99.90
19906;DHT22;10115;50.906;4.438;2023-04-03T09:19:07;6.70;99.90
19906;DHT22;10115;50.906;4.438;2023-04-03T09:21:39;6.80;99.90
19906;DHT22;10115;50.906;4.438;2023-04-03T09:24:10;7.10;99.90
19906;DHT22;10115;50.906;4.438;2023-04-03T09:26:58;7.10;99.90
19906;DHT22;10115;50.906;4.438;2023-04-03T09:29:25;7.00;99.90
19906;DHT22;10115;50.906;4.438;2023-04-03T09:32:00;7.00;99.90
19906;DHT22;10115;50.906;4.438;2023-04-03T09:34:29;7.00;99.90
19906;DHT22;10115;50.906;4.438;2023-04-03T09:36:59;7.20;99.90
19906;DHT22;10115;50.906;4.438;2023-04-03T09:39:29;7.30;99.90
19906;DHT22;10115;50.906;4.438;2023-04-03T09:42:03;7.40;99.90
19906;DHT22;10115;50.906;4.438;2023-04-03T09:46:56;7.50;99.90
19906;DHT22;10115;50.906;4.438;2023-04-03T09:49:22;7.40;99.90
19906;DHT22;10115;50.906;4.438;2023-04-03T09:51:48;7.40;99.90
19906;DHT22;10115;50.906;4.438;2023-04-03T09:54:31;7.40;99.90
19906;DHT22;10115;50.906;4.438;2023-04-03T09:57:04;7.40;99.90
19906;DHT22;10115;50.906;4.438;2023-04-03T09:59:31;7.60;99.90
19906;DHT22;10115;50.906;4.438;2023-04-03T10:02:12;7.70;99.90
19906;DHT22;10115;50.906;4.438;2023-04-03T10:04:42;7.70;99.90
19906;DHT22;10115;50.906;4.438;2023-04-03T10:09:58;7.70;99.90
19906;DHT22;10115;50.906;4.438;2023-04-03T10:12:25;7.90;99.90
19906;DHT22;10115;50.906;4.438;2023-04-03T10:14:55;7.90;99.90
19906;DHT22;10115;50.906;4.438;2023-04-03T10:17:50;8.00;99.90
19906;DHT22;10115;50.906;4.438;2023-04-03T10:20:42;8.00;99.90
19906;DHT22;10115;50.906;4.438;2023-04-03T10:34:06;8.30;99.90
19906;DHT22;10115;50.906;4.438;2023-04-03T10:36:42;8.50;99.90
19906;DHT22;10115;50.906;4.438;2023-04-03T10:50:03;8.60;99.90
19906;DHT22;10115;50.906;4.438;2023-04-03T10:52:42;8.80;99.90
19906;DHT22;10115;50.906;4.438;2023-04-03T10:57:40;8.80;99.90
19906;DHT22;10115;50.906;4.438;2023-04-03T11:00:14;8.80;99.90
19906;DHT22;10115;50.906;4.438;2023-04-03T11:02:58;9.00;99.90
19906;DHT22;10115;50.906;4.438;2023-04-03T11:05:47;9.10;99.90
19906;DHT22;10115;50.906;4.438;2023-04-03T11:08:33;9.00;99.90
19906;DHT22;10115;50.906;4.438;2023-04-03T11:11:05;8.90;99.90
19906;DHT22;10115;50.906;4.438;2023-04-03T11:14:05;8.90;99.90
19906;DHT22;10115;50.906;4.438;2023-04-03T11:16:39;8.80;99.90
19906;DHT22;10115;50.906;4.438;2023-04-03T11:21:46;9.00;99.90
19906;DHT22;10115;50.906;4.438;2023-04-03T11:24:23;8.90;99.90
19906;DHT22;10115;50.906;4.438;2023-04-03T11:26:50;8.90;99.90
19906;DHT22;10115;50.906;4.438;2023-04-03T11:29:21;9.40;99.90
19906;DHT22;10115;50.906;4.438;2023-04-03T11:36:58;9.30;99.90
19906;DHT22;10115;50.906;4.438;2023-04-03T11:39:36;9.70;99.90
19906;DHT22;10115;50.906;4.438;2023-04-03T11:42:39;9.70;99.90
19906;DHT22;10115;50.906;4.438;2023-04-03T11:47:55;10.10;99.90
19906;DHT22;10115;50.906;4.438;2023-04-03T11:50:42;10.00;99.90
19906;DHT22;10115;50.906;4.438;2023-04-03T12:01:01;10.20;99.90
19906;DHT22;10115;50.906;4.438;2023-04-03T12:08:25;10.30;99.90
19906;DHT22;10115;50.906;4.438;2023-04-03T12:13:40;10.40;99.90
19906;DHT22;10115;50.906;4.438;2023-04-03T12:16:29;10.40;99.90
19906;DHT22;10115;50.906;4.438;2023-04-03T12:18:58;10.60;99.90
19906;DHT22;10115;50.906;4.438;2023-04-03T12:38:37;10.90;99.90
19906;DHT22;10115;50.906;4.438;2023-04-03T12:46:41;10.90;99.90
19906;DHT22;10115;50.906;4.438;2023-04-03T12:49:30;10.90;99.90
19906;DHT22;10115;50.906;4.438;2023-04-03T12:51:58;10.90;99.90
19906;DHT22;10115;50.906;4.438;2023-04-03T12:54:35;10.80;99.90
19906;DHT22;10115;50.906;4.438;2023-04-03T12:57:18;10.90;99.90
19906;DHT22;10115;50.906;4.438;2023-04-03T12:59:44;11.00;99.90
19906;DHT22;10115;50.906;4.438;2023-04-03T13:02:34;10.90;99.90
19906;DHT22;10115;50.906;4.438;2023-04-03T13:05:06;11.00;99.90
19906;DHT22;10115;50.906;4.438;2023-04-03T13:07:35;11.10;99.90
19906;DHT22;10115;50.906;4.438;2023-04-03T13:12:44;11.10;99.90
19906;DHT22;10115;50.906;4.438;2023-04-03T13:15:23;11.30;99.90
19906;DHT22;10115;50.906;4.438;2023-04-03T13:17:50;11.40;99.90
19906;DHT22;10115;50.906;4.438;2023-04-03T13:20:27;11.30;99.90
19906;DHT22;10115;50.906;4.438;2023-04-03T13:22:59;11.30;99.90
19906;DHT22;10115;50.906;4.438;2023-04-03T13:25:29;11.20;99.90
19906;DHT22;10115;50.906;4.438;2023-04-03T13:27:58;11.40;99.90
19906;DHT22;10115;50.906;4.438;2023-04-03T13:30:33;12.00;99.90
19906;DHT22;10115;50.906;4.438;2023-04-03T13:33:02;12.90;99.90
19906;DHT22;10115;50.906;4.438;2023-04-03T13:35:39;13.00;99.90
19906;DHT22;10115;50.906;4.438;2023-04-03T13:40:52;14.60;99.90
19906;DHT22;10115;50.906;4.438;2023-04-03T13:43:27;15.10;99.10
19906;DHT22;10115;50.906;4.438;2023-04-03T13:48:24;15.40;95.00
19906;DHT22;10115;50.906;4.438;2023-04-03T13:51:02;15.20;95.90
19906;DHT22;10115;50.906;4.438;2023-04-03T13:53:30;15.80;96.30
19906;DHT22;10115;50.906;4.438;2023-04-03T13:56:07;16.50;95.50
19906;DHT22;10115;50.906;4.438;2023-04-03T13:58:35;16.90;92.60
19906;DHT22;10115;50.906;4.438;2023-04-03T14:01:14;17.40;91.10
19906;DHT22;10115;50.906;4.438;2023-04-03T14:04:09;17.50;90.80
19906;DHT22;10115;50.906;4.438;2023-04-03T14:06:35;17.20;88.80
19906;DHT22;10115;50.906;4.438;2023-04-03T14:09:02;17.10;87.50
19906;DHT22;10115;50.906;4.438;2023-04-03T14:11:30;17.80;85.80
19906;DHT22;10115;50.906;4.438;2023-04-03T14:13:59;17.70;84.40
19906;DHT22;10115;50.906;4.438;2023-04-03T14:16:27;18.10;83.50
19906;DHT22;10115;50.906;4.438;2023-04-03T14:18:55;18.10;79.00
19906;DHT22;10115;50.906;4.438;2023-04-03T14:21:22;18.10;80.90
19906;DHT22;10115;50.906;4.438;2023-04-03T14:23:48;18.40;78.20
19906;DHT22;10115;50.906;4.438;2023-04-03T14:26:17;19.50;74.10
19906;DHT22;10115;50.906;4.438;2023-04-03T14:28:44;18.40;71.50
19906;DHT22;10115;50.906;4.438;2023-04-03T14:31:12;17.90;74.50
19906;DHT22;10115;50.906;4.438;2023-04-03T14:33:38;17.90;72.50
19906;DHT22;10115;50.906;4.438;2023-04-03T14:36:36;17.60;71.90
19906;DHT22;10115;50.906;4.438;2023-04-03T14:39:04;18.00;72.60
19906;DHT22;10115;50.906;4.438;2023-04-03T14:41:30;18.40;70.30
19906;DHT22;10115;50.906;4.438;2023-04-03T14:43:56;19.00;72.60
19906;DHT22;10115;50.906;4.438;2023-04-03T14:46:40;18.80;71.40
19906;DHT22;10115;50.906;4.438;2023-04-03T14:49:15;19.60;71.30
19906;DHT22;10115;50.906;4.438;2023-04-03T14:51:43;18.60;68.40
19906;DHT22;10115;50.906;4.438;2023-04-03T14:54:15;18.40;69.20
19906;DHT22;10115;50.906;4.438;2023-04-03T14:56:41;19.10;69.40
19906;DHT22;10115;50.906;4.438;2023-04-03T14:59:14;19.80;66.90
19906;DHT22;10115;50.906;4.438;2023-04-03T15:01:42;20.20;67.80
19906;DHT22;10115;50.906;4.438;2023-04-03T15:04:15;20.60;65.50
19906;DHT22;10115;50.906;4.438;2023-04-03T15:06:42;20.60;65.60
19906;DHT22;10115;50.906;4.438;2023-04-03T15:09:27;21.00;65.00
19906;DHT22;10115;50.906;4.438;2023-04-03T15:11:54;20.80;62.10
19906;DHT22;10115;50.906;4.438;2023-04-03T15:14:20;20.00;62.80
19906;DHT22;10115;50.906;4.438;2023-04-03T15:16:46;19.40;62.90
19906;DHT22;10115;50.906;4.438;2023-04-03T15:19:13;19.20;62.50
19906;DHT22;10115;50.906;4.438;2023-04-03T15:21:39;19.10;61.10
19906;DHT22;10115;50.906;4.438;2023-04-03T15:24:06;20.00;63.30
19906;DHT22;10115;50.906;4.438;2023-04-03T15:26:32;20.00;60.80
19906;DHT22;10115;50.906;4.438;2023-04-03T15:28:58;20.00;58.90
19906;DHT22;10115;50.906;4.438;2023-04-03T15:31:24;19.70;59.70
19906;DHT22;10115;50.906;4.438;2023-04-03T15:33:50;19.20;60.10
19906;DHT22;10115;50.906;4.438;2023-04-03T15:36:15;19.50;59.50
19906;DHT22;10115;50.906;4.438;2023-04-03T15:38:41;20.50;59.00
19906;DHT22;10115;50.906;4.438;2023-04-03T15:41:07;20.00;58.70
19906;DHT22;10115;50.906;4.438;2023-04-03T15:43:32;20.20;57.10
19906;DHT22;10115;50.906;4.438;2023-04-03T15:46:01;20.10;57.80
19906;DHT22;10115;50.906;4.438;2023-04-03T15:48:28;19.40;58.50
19906;DHT22;10115;50.906;4.438;2023-04-03T15:50:54;19.40;58.00
19906;DHT22;10115;50.906;4.438;2023-04-03T15:53:21;19.60;59.20
19906;DHT22;10115;50.906;4.438;2023-04-03T15:55:47;20.60;57.50
19906;DHT22;10115;50.906;4.438;2023-04-03T15:58:13;21.30;56.80
19906;DHT22;10115;50.906;4.438;2023-04-03T16:00:39;21.50;55.90
19906;DHT22;10115;50.906;4.438;2023-04-03T16:03:09;21.20;56.20
19906;DHT22;10115;50.906;4.438;2023-04-03T16:05:37;21.30;55.80
19906;DHT22;10115;50.906;4.438;2023-04-03T16:08:04;21.50;56.20
19906;DHT22;10115;50.906;4.438;2023-04-03T16:10:32;21.20;56.60
19906;DHT22;10115;50.906;4.438;2023-04-03T16:12:58;20.10;54.70
19906;DHT22;10115;50.906;4.438;2023-04-03T16:15:24;19.80;56.60
19906;DHT22;10115;50.906;4.438;2023-04-03T16:17:50;19.60;56.50
19906;DHT22;10115;50.906;4.438;2023-04-03T16:20:18;19.80;58.30
19906;DHT22;10115;50.906;4.438;2023-04-03T16:22:45;19.30;58.10
19906;DHT22;10115;50.906;4.438;2023-04-03T16:25:11;19.10;57.00
19906;DHT22;10115;50.906;4.438;2023-04-03T16:27:39;19.20;57.50
19906;DHT22;10115;50.906;4.438;2023-04-03T16:30:06;19.20;57.50
19906;DHT22;10115;50.906;4.438;2023-04-03T16:32:34;19.00;57.20
19906;DHT22;10115;50.906;4.438;2023-04-03T16:35:00;19.60;58.50
19906;DHT22;10115;50.906;4.438;2023-04-03T16:37:26;19.10;57.50
19906;DHT22;10115;50.906;4.438;2023-04-03T16:39:52;18.50;58.90
19906;DHT22;10115;50.906;4.438;2023-04-03T16:42:18;18.40;59.10
19906;DHT22;10115;50.906;4.438;2023-04-03T16:44:43;18.90;58.10
19906;DHT22;10115;50.906;4.438;2023-04-03T16:47:09;18.70;59.70
19906;DHT22;10115;50.906;4.438;2023-04-03T16:49:36;18.60;59.20
19906;DHT22;10115;50.906;4.438;2023-04-03T16:52:04;18.10;59.00
19906;DHT22;10115;50.906;4.438;2023-04-03T16:54:30;17.40;59.60
19906;DHT22;10115;50.906;4.438;2023-04-03T16:56:57;17.10;59.80
19906;DHT22;10115;50.906;4.438;2023-04-03T16:59:23;16.80;59.80
19906;DHT22;10115;50.906;4.438;2023-04-03T17:01:49;17.00;60.20
19906;DHT22;10115;50.906;4.438;2023-04-03T17:04:16;17.40;59.80
19906;DHT22;10115;50.906;4.438;2023-04-03T17:06:41;17.10;60.90
19906;DHT22;10115;50.906;4.438;2023-04-03T17:09:07;17.10;60.20
19906;DHT22;10115;50.906;4.438;2023-04-03T17:11:35;17.30;60.60
19906;DHT22;10115;50.906;4.438;2023-04-03T17:14:01;17.70;60.10
19906;DHT22;10115;50.906;4.438;2023-04-03T17:16:28;17.60;59.90
19906;DHT22;10115;50.906;4.438;2023-04-03T17:18:55;17.50;60.50
19906;DHT22;10115;50.906;4.438;2023-04-03T17:21:21;17.40;61.80
19906;DHT22;10115;50.906;4.438;2023-04-03T17:23:50;17.70;60.70
19906;DHT22;10115;50.906;4.438;2023-04-03T17:26:18;17.60;61.00